createdAt,value
2022-08-28T00:02:03.503Z,101185.81
2022-08-28T00:04:30.521Z,101189.81
2022-08-28T00:06:57.738Z,101177.34
2022-08-28T00:09:24.657Z,101182.00
2022-08-28T00:11:51.543Z,101174.84
2022-08-28T00:14:21.312Z,101172.69
2022-08-28T00:16:49.681Z,101174.81
2022-08-28T00:19:20.879Z,101174.38
2022-08-28T00:21:49.600Z,101172.06
2022-08-28T00:24:17.594Z,101174.34
2022-08-28T00:27:03.963Z,101173.06
2022-08-28T00:29:31.766Z,101181.69
2022-08-28T00:32:01.920Z,101165.84
2022-08-28T00:34:33.051Z,101173.44
2022-08-28T00:37:01.112Z,101177.44
2022-08-28T00:39:28.279Z,101173.88
2022-08-28T00:41:57.830Z,101180.81
2022-08-28T00:44:27.827Z,101183.75
2022-08-28T00:46:57.550Z,101175.91
2022-08-28T00:49:30.401Z,101180.56
2022-08-28T00:52:06.108Z,101179.28
2022-08-28T00:54:37.968Z,101182.81
2022-08-28T00:57:10.483Z,101182.38
2022-08-28T00:59:38.880Z,101179.84
2022-08-28T01:02:07.744Z,101185.53
2022-08-28T01:04:36.490Z,101183.63
2022-08-28T01:07:09.290Z,101186.13
2022-08-28T01:09:40.659Z,101183.81
2022-08-28T01:12:14.578Z,101183.94
2022-08-28T01:14:46.062Z,101187.34
2022-08-28T01:17:16.458Z,101184.97
2022-08-28T01:19:56.590Z,101187.66
2022-08-28T01:22:23.344Z,101187.00
2022-08-28T01:24:53.279Z,101186.38
2022-08-28T01:27:20.587Z,101190.38
2022-08-28T01:29:51.370Z,101194.28
2022-08-28T01:32:54.087Z,101190.66
2022-08-28T01:35:26.633Z,101186.88
2022-08-28T01:37:56.237Z,101182.88
2022-08-28T01:40:32.485Z,101177.13
2022-08-28T01:43:12.946Z,101186.38
2022-08-28T01:45:48.442Z,101186.13
2022-08-28T01:48:16.720Z,101185.88
2022-08-28T01:50:44.450Z,101194.66
2022-08-28T01:53:16.454Z,101194.88
2022-08-28T01:55:44.684Z,101195.25
2022-08-28T01:58:12.865Z,101195.00
2022-08-28T02:00:40.440Z,101195.41
2022-08-28T02:03:07.240Z,101193.06
2022-08-28T02:05:35.160Z,101190.69
2022-08-28T02:08:04.810Z,101189.81
2022-08-28T02:10:35.513Z,101199.84
2022-08-28T02:13:03.931Z,101193.44
2022-08-28T02:15:33.282Z,101196.31
2022-08-28T02:18:00.681Z,101204.25
2022-08-28T02:20:29.519Z,101194.06
2022-08-28T02:22:58.391Z,101195.03
2022-08-28T02:25:27.339Z,101198.50
2022-08-28T02:27:55.155Z,101204.56
2022-08-28T02:30:22.527Z,101201.53
2022-08-28T02:32:50.806Z,101205.50
2022-08-28T02:35:19.740Z,101200.13
2022-08-28T02:37:48.075Z,101201.75
2022-08-28T02:40:18.834Z,101196.88
2022-08-28T02:42:46.423Z,101201.03
2022-08-28T02:45:15.183Z,101197.81
2022-08-28T02:47:44.600Z,101195.84
2022-08-28T02:50:15.325Z,101203.38
2022-08-28T02:52:42.936Z,101201.03
2022-08-28T02:55:13.260Z,101195.28
2022-08-28T02:57:40.438Z,101199.41
2022-08-28T03:00:15.183Z,101209.03
2022-08-28T03:02:43.189Z,101207.72
2022-08-28T03:05:10.695Z,101207.06
2022-08-28T03:07:37.665Z,101208.44
2022-08-28T03:10:07.313Z,101221.44
2022-08-28T03:12:35.236Z,101215.31
2022-08-28T03:15:02.731Z,101211.75
2022-08-28T03:17:29.638Z,101207.50
2022-08-28T03:19:56.599Z,101211.19
2022-08-28T03:22:43.460Z,101206.09
2022-08-28T03:25:12.662Z,101203.72
2022-08-28T03:27:39.507Z,101207.63
2022-08-28T03:30:08.470Z,101209.88
2022-08-28T03:32:36.493Z,101206.31
2022-08-28T03:35:05.656Z,101209.41
2022-08-28T03:37:32.717Z,101196.16
2022-08-28T03:40:00.772Z,101200.25
2022-08-28T03:42:27.778Z,101194.16
2022-08-28T03:44:54.778Z,101195.56
2022-08-28T03:47:22.708Z,101195.06
2022-08-28T03:49:56.702Z,101197.97
2022-08-28T03:52:24.427Z,101195.63
2022-08-28T03:54:52.381Z,101203.81
2022-08-28T03:57:22.308Z,101207.72
2022-08-28T03:59:52.354Z,101207.94
2022-08-28T04:02:20.823Z,101210.38
2022-08-28T04:04:49.977Z,101204.91
2022-08-28T04:07:19.141Z,101204.91
2022-08-28T04:09:47.282Z,101206.97
2022-08-28T04:12:15.339Z,101210.06
2022-08-28T04:14:42.337Z,101211.94
2022-08-28T04:17:10.176Z,101211.94
2022-08-28T04:19:38.183Z,101211.28
2022-08-28T04:22:05.315Z,101211.28
2022-08-28T04:24:32.203Z,101214.84
2022-08-28T04:26:59.045Z,101212.13
2022-08-28T04:29:26.251Z,101212.47
2022-08-28T04:31:53.275Z,101213.53
2022-08-28T04:34:20.370Z,101215.56
2022-08-28T04:36:51.275Z,101221.56
2022-08-28T04:39:18.327Z,101214.44
2022-08-28T04:41:45.300Z,101210.38
2022-08-28T04:44:12.374Z,101222.28
2022-08-28T04:46:39.321Z,101227.91
2022-08-28T04:49:06.244Z,101229.31
2022-08-28T04:51:33.333Z,101235.81
2022-08-28T04:54:02.176Z,101237.50
2022-08-28T04:56:29.812Z,101233.09
2022-08-28T04:58:56.683Z,101237.00
2022-08-28T05:01:24.910Z,101241.44
2022-08-28T05:03:59.767Z,101229.00
2022-08-28T05:06:30.156Z,101232.75
2022-08-28T05:08:59.367Z,101237.88
2022-08-28T05:11:34.147Z,101234.44
2022-08-28T05:14:04.920Z,101242.28
2022-08-28T05:16:33.307Z,101247.72
2022-08-28T05:19:02.342Z,101244.16
2022-08-28T05:21:29.348Z,101252.16
2022-08-28T05:23:58.342Z,101251.13
2022-08-28T05:26:26.818Z,101246.16
2022-08-28T05:28:56.340Z,101245.59
2022-08-28T05:31:25.957Z,101252.59
2022-08-28T05:33:54.109Z,101251.00
2022-08-28T05:36:26.528Z,101256.78
2022-08-28T05:39:04.718Z,101254.06
2022-08-28T05:41:33.308Z,101263.19
2022-08-28T05:44:03.881Z,101257.03
2022-08-28T05:46:31.536Z,101260.41
2022-08-28T05:49:00.664Z,101260.03
2022-08-28T05:51:28.606Z,101268.16
2022-08-28T05:53:57.973Z,101267.44
2022-08-28T05:56:30.094Z,101269.41
2022-08-28T05:58:59.378Z,101268.00
2022-08-28T06:01:30.092Z,101270.06
2022-08-28T06:04:11.353Z,101267.81
2022-08-28T06:06:39.909Z,101271.00
2022-08-28T06:09:21.829Z,101270.47
2022-08-28T06:11:51.130Z,101273.28
2022-08-28T06:14:20.903Z,101273.59
2022-08-28T06:16:53.114Z,101272.00
2022-08-28T06:19:23.026Z,101282.72
2022-08-28T06:21:54.798Z,101286.78
2022-08-28T06:24:21.999Z,101285.75
2022-08-28T06:26:48.837Z,101293.38
2022-08-28T06:29:18.505Z,101286.91
2022-08-28T06:31:53.321Z,101287.72
2022-08-28T06:34:20.850Z,101286.03
2022-08-28T06:36:53.147Z,101288.97
2022-08-28T06:39:21.222Z,101290.28
2022-08-28T06:41:48.166Z,101288.22
2022-08-28T06:44:20.873Z,101297.06
2022-08-28T06:46:51.378Z,101298.94
2022-08-28T06:49:18.874Z,101308.47
2022-08-28T06:51:45.749Z,101307.59
2022-08-28T06:54:12.608Z,101305.34
2022-08-28T06:56:39.503Z,101302.72
2022-08-28T06:59:06.594Z,101309.97
2022-08-28T07:01:37.098Z,101311.75
2022-08-28T07:04:10.789Z,101317.03
2022-08-28T07:06:41.415Z,101312.03
2022-08-28T07:09:11.447Z,101323.22
2022-08-28T07:11:39.687Z,101316.19
2022-08-28T07:14:07.658Z,101320.44
2022-08-28T07:16:38.557Z,101313.88
2022-08-28T07:19:07.941Z,101310.50
2022-08-28T07:21:42.019Z,101322.66
2022-08-28T07:24:12.607Z,101316.91
2022-08-28T07:26:41.305Z,101320.00
2022-08-28T07:29:10.342Z,101328.59
2022-08-28T07:31:45.093Z,101335.69
2022-08-28T07:34:13.782Z,101332.19
2022-08-28T07:36:42.318Z,101329.38
2022-08-28T07:39:11.408Z,101327.72
2022-08-28T07:41:40.466Z,101329.03
2022-08-28T07:44:27.171Z,101332.28
2022-08-28T07:47:02.471Z,101326.16
2022-08-28T07:49:29.343Z,101336.38
2022-08-28T07:51:56.674Z,101326.41
2022-08-28T07:54:24.368Z,101330.00
2022-08-28T07:56:52.797Z,101328.25
2022-08-28T07:59:20.372Z,101330.53
2022-08-28T08:01:51.669Z,101339.56
2022-08-28T08:04:21.043Z,101336.13
2022-08-28T08:06:48.776Z,101340.66
2022-08-28T08:09:19.263Z,101338.44
2022-08-28T08:11:49.166Z,101330.56
2022-08-28T08:14:17.557Z,101337.94
2022-08-28T08:16:47.643Z,101336.63
2022-08-28T08:19:17.298Z,101337.75
2022-08-28T08:21:55.063Z,101338.88
2022-08-28T08:24:26.431Z,101330.19
2022-08-28T08:26:59.877Z,101338.50
2022-08-28T08:29:31.844Z,101341.03
2022-08-28T08:32:06.241Z,101343.88
2022-08-28T08:34:36.762Z,101344.03
2022-08-28T08:37:05.775Z,101345.31
2022-08-28T08:39:35.141Z,101343.13
2022-08-28T08:42:05.626Z,101343.44
2022-08-28T08:44:47.685Z,101340.78
2022-08-28T08:47:29.658Z,101348.41
2022-08-28T08:50:26.850Z,101343.69
2022-08-28T08:53:21.756Z,101343.66
2022-08-28T08:55:51.458Z,101348.50
2022-08-28T08:58:42.503Z,101336.16
2022-08-28T09:01:34.564Z,101343.34
2022-08-28T09:04:16.802Z,101346.34
2022-08-28T09:06:57.244Z,101342.50
2022-08-28T09:09:26.945Z,101348.97
2022-08-28T09:11:57.510Z,101341.53
2022-08-28T09:14:37.805Z,101339.72
2022-08-28T09:17:06.926Z,101339.22
2022-08-28T09:19:34.605Z,101332.25
2022-08-28T09:22:02.282Z,101334.28
2022-08-28T09:24:38.979Z,101330.91
2022-08-28T09:27:22.293Z,101333.69
2022-08-28T09:30:08.070Z,101333.06
2022-08-28T09:32:44.418Z,101328.00
2022-08-28T09:35:14.227Z,101334.25
2022-08-28T09:37:44.148Z,101337.97
2022-08-28T09:40:25.028Z,101331.88
2022-08-28T09:43:29.066Z,101331.72
2022-08-28T09:46:29.351Z,101333.88
2022-08-28T09:49:14.620Z,101342.75
2022-08-28T09:51:42.213Z,101339.94
2022-08-28T09:54:22.191Z,101341.78
2022-08-28T09:56:50.783Z,101336.19
2022-08-28T09:59:21.507Z,101339.53
2022-08-28T10:02:18.039Z,101334.47
2022-08-28T10:05:05.535Z,101332.78
2022-08-28T10:07:58.065Z,101336.19
2022-08-28T10:10:49.574Z,101336.19
2022-08-28T10:13:52.410Z,101338.06
2022-08-28T10:16:41.749Z,101333.06
2022-08-28T10:19:41.232Z,101340.25
2022-08-28T10:22:22.308Z,101338.75
2022-08-28T10:25:06.651Z,101329.13
2022-08-28T10:27:53.375Z,101328.19
2022-08-28T10:30:24.530Z,101325.44
2022-08-28T10:32:57.298Z,101322.34
2022-08-28T10:35:47.903Z,101329.44
2022-08-28T10:38:18.791Z,101334.00
2022-08-28T10:40:59.994Z,101328.38
2022-08-28T10:43:36.615Z,101335.94
2022-08-28T10:46:23.134Z,101332.97
2022-08-28T10:49:05.835Z,101337.41
2022-08-28T10:51:49.957Z,101337.28
2022-08-28T10:54:26.818Z,101340.03
2022-08-28T10:57:00.801Z,101336.91
2022-08-28T10:59:32.194Z,101334.38
2022-08-28T11:02:01.054Z,101342.31
2022-08-28T11:04:29.600Z,101343.56
2022-08-28T11:07:04.091Z,101345.38
2022-08-28T11:09:43.240Z,101342.25
2022-08-28T11:12:37.254Z,101347.91
2022-08-28T11:15:36.440Z,101343.34
2022-08-28T11:18:42.119Z,101334.44
2022-08-28T11:21:35.952Z,101333.56
2022-08-28T11:24:43.715Z,101335.72
2022-08-28T11:27:33.439Z,101339.31
2022-08-28T11:30:09.832Z,101331.00
2022-08-28T11:32:51.596Z,101325.47
2022-08-28T11:35:21.816Z,101319.94
2022-08-28T11:37:51.905Z,101320.81
2022-08-28T11:40:32.757Z,101325.16
2022-08-28T11:43:20.883Z,101323.34
2022-08-28T11:45:50.604Z,101318.53
2022-08-28T11:48:23.477Z,101325.75
2022-08-28T11:51:04.694Z,101311.56
2022-08-28T11:53:55.330Z,101316.59
2022-08-28T11:56:59.702Z,101315.75
2022-08-28T11:59:50.582Z,101316.94
2022-08-28T12:02:39.304Z,101319.00
2022-08-28T12:05:12.000Z,101315.13
2022-08-28T12:07:48.064Z,101315.84
2022-08-28T12:10:20.880Z,101319.81
2022-08-28T12:12:47.678Z,101320.06
2022-08-28T12:15:42.903Z,101314.00
2022-08-28T12:18:12.763Z,101314.13
2022-08-28T12:20:52.203Z,101310.75
2022-08-28T12:23:46.027Z,101302.78
2022-08-28T12:26:44.025Z,101302.56
2022-08-28T12:29:35.610Z,101306.88
2022-08-28T12:32:33.207Z,101300.84
2022-08-28T12:34:59.991Z,101295.91
2022-08-28T12:37:54.630Z,101306.84
2022-08-28T12:40:40.056Z,101295.50
2022-08-28T12:43:09.265Z,101296.03
2022-08-28T12:46:01.124Z,101298.59
2022-08-28T12:48:32.929Z,101293.72
2022-08-28T12:51:15.370Z,101288.84
2022-08-28T12:53:46.625Z,101289.19
2022-08-28T12:56:18.130Z,101285.00
2022-08-28T12:58:47.232Z,101292.56
2022-08-28T13:01:16.038Z,101282.81
2022-08-28T13:03:51.531Z,101294.91
2022-08-28T13:06:27.116Z,101296.00
2022-08-28T13:09:02.918Z,101299.00
2022-08-28T13:11:35.683Z,101298.31
2022-08-28T13:14:04.456Z,101303.47
2022-08-28T13:16:45.545Z,101304.56
2022-08-28T13:19:29.903Z,101298.94
2022-08-28T13:22:00.723Z,101296.78
2022-08-28T13:24:48.950Z,101287.84
2022-08-28T13:27:23.879Z,101290.75
2022-08-28T13:30:16.807Z,101281.81
2022-08-28T13:32:58.440Z,101285.44
2022-08-28T13:35:25.184Z,101287.34
2022-08-28T13:37:56.431Z,101287.34
2022-08-28T13:40:56.214Z,101284.00
2022-08-28T13:43:18.822Z,101271.69
2022-08-28T13:45:48.983Z,101275.63
2022-08-28T13:48:20.318Z,101281.03
2022-08-28T13:50:58.159Z,101282.09
2022-08-28T13:53:25.450Z,101274.31
2022-08-28T13:55:52.319Z,101269.94
2022-08-28T13:58:19.475Z,101267.31
2022-08-28T14:00:49.706Z,101266.97
2022-08-28T14:03:35.528Z,101264.72
2022-08-28T14:06:11.759Z,101271.50
2022-08-28T14:08:44.219Z,101270.63
2022-08-28T14:11:13.416Z,101269.03
2022-08-28T14:13:47.724Z,101267.94
2022-08-28T14:16:24.463Z,101264.69
2022-08-28T14:18:53.024Z,101259.44
2022-08-28T14:21:21.008Z,101259.13
2022-08-28T14:23:48.019Z,101260.19
2022-08-28T14:26:14.855Z,101257.94
2022-08-28T14:28:42.488Z,101254.25
2022-08-28T14:31:14.239Z,101252.25
2022-08-28T14:33:42.487Z,101245.66
2022-08-28T14:36:21.323Z,101261.81
2022-08-28T14:38:52.701Z,101260.19
2022-08-28T14:41:23.283Z,101260.31
2022-08-28T14:43:50.164Z,101259.88
2022-08-28T14:46:19.684Z,101257.25
2022-08-28T14:48:48.155Z,101255.88
2022-08-28T14:51:16.870Z,101259.03
2022-08-28T14:53:44.811Z,101255.28
2022-08-28T14:56:12.323Z,101265.03
2022-08-28T14:58:39.537Z,101262.44
2022-08-28T15:01:06.898Z,101255.38
2022-08-28T15:03:34.407Z,101260.06
2022-08-28T15:06:09.527Z,101255.03
2022-08-28T15:08:37.147Z,101257.59
2022-08-28T15:11:09.824Z,101254.06
2022-08-28T15:13:36.782Z,101257.59
2022-08-28T15:16:14.638Z,101255.75
2022-08-28T15:18:43.969Z,101256.72
2022-08-28T15:21:35.773Z,101253.88
2022-08-28T15:24:04.845Z,101247.31
2022-08-28T15:26:34.430Z,101258.50
2022-08-28T15:29:04.438Z,101250.34
2022-08-28T15:31:35.322Z,101250.75
2022-08-28T15:34:13.693Z,101260.81
2022-08-28T15:36:43.039Z,101260.75
2022-08-28T15:39:29.729Z,101256.44
2022-08-28T15:41:57.598Z,101256.94
2022-08-28T15:44:24.803Z,101250.22
2022-08-28T15:46:59.499Z,101258.78
2022-08-28T15:49:30.315Z,101250.81
2022-08-28T15:51:59.299Z,101254.91
2022-08-28T15:54:26.198Z,101261.78
2022-08-28T15:56:54.049Z,101255.16
2022-08-28T15:59:23.722Z,101261.78
2022-08-28T16:01:51.591Z,101260.44
2022-08-28T16:04:18.449Z,101256.09
2022-08-28T16:06:46.303Z,101253.91
2022-08-28T16:09:13.548Z,101257.63
2022-08-28T16:11:42.623Z,101254.09
2022-08-28T16:14:11.154Z,101259.63
2022-08-28T16:16:38.182Z,101256.03
2022-08-28T16:19:06.618Z,101257.63
2022-08-28T16:21:33.849Z,101256.16
2022-08-28T16:24:01.057Z,101259.22
2022-08-28T16:26:29.767Z,101249.47
2022-08-28T16:28:56.974Z,101250.22
2022-08-28T16:31:24.170Z,101253.72
2022-08-28T16:33:51.223Z,101244.47
2022-08-28T16:36:18.783Z,101248.34
2022-08-28T16:38:49.708Z,101253.03
2022-08-28T16:41:27.553Z,101251.00
2022-08-28T16:43:55.492Z,101253.19
2022-08-28T16:46:25.597Z,101250.31
2022-08-28T16:48:54.027Z,101249.97
2022-08-28T16:51:21.883Z,101251.78
2022-08-28T16:53:48.759Z,101251.09
2022-08-28T16:56:18.090Z,101242.16
2022-08-28T16:58:45.858Z,101247.84
2022-08-28T17:01:13.905Z,101247.03
2022-08-28T17:03:42.895Z,101244.50
2022-08-28T17:06:25.863Z,101239.59
2022-08-28T17:08:56.988Z,101237.91
2022-08-28T17:11:27.077Z,101241.78
2022-08-28T17:13:55.488Z,101238.91
2022-08-28T17:16:24.202Z,101228.69
2022-08-28T17:18:52.568Z,101225.94
2022-08-28T17:21:40.273Z,101234.94
2022-08-28T17:24:14.587Z,101228.22
2022-08-28T17:26:43.840Z,101224.50
2022-08-28T17:29:11.203Z,101225.25
2022-08-28T17:31:38.891Z,101225.72
2022-08-28T17:34:07.556Z,101222.59
2022-08-28T17:36:37.129Z,101220.94
2022-08-28T17:39:08.259Z,101230.81
2022-08-28T17:41:36.167Z,101219.63
2022-08-28T17:44:05.351Z,101234.38
2022-08-28T17:46:37.444Z,101224.41
2022-08-28T17:49:07.296Z,101224.88
2022-08-28T17:51:43.697Z,101224.78
2022-08-28T17:54:22.881Z,101230.78
2022-08-28T17:56:51.449Z,101225.75
2022-08-28T17:59:19.811Z,101222.34
2022-08-28T18:01:47.443Z,101226.69
2022-08-28T18:04:21.623Z,101222.72
2022-08-28T18:06:52.820Z,101220.41
2022-08-28T18:09:20.311Z,101224.28
2022-08-28T18:11:47.638Z,101215.88
2022-08-28T18:14:14.967Z,101236.78
2022-08-28T18:16:42.182Z,101229.66
2022-08-28T18:19:11.712Z,101234.00
2022-08-28T18:21:40.019Z,101239.63
2022-08-28T18:24:08.836Z,101233.72
2022-08-28T18:26:35.761Z,101239.72
2022-08-28T18:29:02.908Z,101232.16
2022-08-28T18:31:29.805Z,101236.66
2022-08-28T18:33:56.953Z,101242.06
2022-08-28T18:36:24.361Z,101236.19
2022-08-28T18:38:52.032Z,101234.09
2022-08-28T18:41:20.527Z,101232.53
2022-08-28T18:43:48.299Z,101240.66
2022-08-28T18:46:15.977Z,101240.53
2022-08-28T18:48:43.318Z,101237.03
2022-08-28T18:51:12.333Z,101244.91
2022-08-28T18:53:42.353Z,101245.84
2022-08-28T18:56:12.319Z,101253.75
2022-08-28T18:58:41.738Z,101253.81
2022-08-28T19:01:10.046Z,101255.59
2022-08-28T19:03:37.378Z,101256.53
2022-08-28T19:06:06.564Z,101261.88
2022-08-28T19:08:35.467Z,101263.41
2022-08-28T19:11:07.887Z,101272.81
2022-08-28T19:13:35.850Z,101274.34
2022-08-28T19:16:03.090Z,101269.97
2022-08-28T19:18:30.251Z,101274.28
2022-08-28T19:21:09.940Z,101278.56
2022-08-28T19:23:49.349Z,101287.72
2022-08-28T19:26:24.846Z,101287.56
2022-08-28T19:28:52.281Z,101287.63
2022-08-28T19:31:19.581Z,101283.66
2022-08-28T19:33:47.595Z,101288.16
2022-08-28T19:36:15.566Z,101280.31
2022-08-28T19:38:42.578Z,101283.53
2022-08-28T19:41:11.576Z,101286.97
2022-08-28T19:43:42.901Z,101284.03
2022-08-28T19:46:18.260Z,101293.81
2022-08-28T19:48:50.459Z,101291.75
2022-08-28T19:51:23.232Z,101290.47
2022-08-28T19:53:58.321Z,101296.63
2022-08-28T19:56:28.921Z,101292.66
2022-08-28T19:59:01.815Z,101301.59
2022-08-28T20:01:31.528Z,101298.44
2022-08-28T20:04:00.562Z,101287.63
2022-08-28T20:06:30.423Z,101303.75
2022-08-28T20:08:57.220Z,101305.50
2022-08-28T20:11:25.415Z,101304.25
2022-08-28T20:14:04.454Z,101303.84
2022-08-28T20:16:36.605Z,101309.38
2022-08-28T20:19:05.464Z,101318.72
2022-08-28T20:21:37.675Z,101311.97
2022-08-28T20:24:07.644Z,101313.69
2022-08-28T20:26:35.582Z,101313.50
2022-08-28T20:29:03.402Z,101305.44
2022-08-28T20:31:30.340Z,101307.78
2022-08-28T20:33:57.233Z,101313.75
2022-08-28T20:36:24.127Z,101313.97
2022-08-28T20:38:50.963Z,101312.72
2022-08-28T20:41:21.136Z,101320.75
2022-08-28T20:43:48.529Z,101312.09
2022-08-28T20:46:17.171Z,101316.97
2022-08-28T20:48:44.710Z,101319.75
2022-08-28T20:51:12.315Z,101323.13
2022-08-28T20:53:40.083Z,101324.16
2022-08-28T20:56:10.202Z,101318.47
2022-08-28T20:58:38.050Z,101320.19
2022-08-28T21:01:05.841Z,101323.59
2022-08-28T21:03:32.813Z,101324.84
2022-08-28T21:05:59.667Z,101325.72
2022-08-28T21:08:26.513Z,101317.25
2022-08-28T21:10:53.339Z,101326.59
2022-08-28T21:13:20.787Z,101316.84
2022-08-28T21:15:47.901Z,101318.97
2022-08-28T21:18:15.329Z,101316.88
2022-08-28T21:20:42.339Z,101328.28
2022-08-28T21:23:10.614Z,101328.69
2022-08-28T21:25:40.270Z,101322.38
2022-08-28T21:28:07.497Z,101328.53
2022-08-28T21:30:34.930Z,101324.50
2022-08-28T21:33:02.033Z,101330.44
2022-08-28T21:35:29.234Z,101334.66
2022-08-28T21:37:56.047Z,101335.91
2022-08-28T21:40:23.300Z,101331.69
2022-08-28T21:42:50.296Z,101332.13
2022-08-28T21:45:18.457Z,101341.63
2022-08-28T21:47:45.274Z,101327.47
2022-08-28T21:50:12.729Z,101341.00
2022-08-28T21:52:40.721Z,101338.88
2022-08-28T21:55:11.959Z,101338.88
2022-08-28T21:57:39.470Z,101344.19
2022-08-28T22:00:12.630Z,101347.56
2022-08-28T22:02:39.686Z,101352.63
2022-08-28T22:05:06.735Z,101354.53
2022-08-28T22:07:33.594Z,101357.50
2022-08-28T22:10:00.441Z,101344.81
2022-08-28T22:12:27.412Z,101358.97
2022-08-28T22:14:57.628Z,101348.19
2022-08-28T22:17:24.419Z,101362.13
2022-08-28T22:19:51.670Z,101355.34
2022-08-28T22:22:37.645Z,101358.28
2022-08-28T22:25:05.536Z,101357.47
2022-08-28T22:27:33.087Z,101353.66
2022-08-28T22:30:00.135Z,101352.38
2022-08-28T22:32:28.016Z,101365.47
2022-08-28T22:34:55.959Z,101359.13
2022-08-28T22:37:23.477Z,101356.16
2022-08-28T22:39:50.504Z,101356.78
2022-08-28T22:42:18.178Z,101367.72
2022-08-28T22:44:46.780Z,101368.81
2022-08-28T22:47:13.798Z,101363.72
2022-08-28T22:49:40.668Z,101372.34
2022-08-28T22:52:11.156Z,101364.94
2022-08-28T22:54:38.401Z,101379.72
2022-08-28T22:57:06.039Z,101374.00
2022-08-28T22:59:34.785Z,101370.84
2022-08-28T23:02:03.881Z,101375.03
2022-08-28T23:04:31.339Z,101379.66
2022-08-28T23:06:58.160Z,101382.84
2022-08-28T23:09:24.996Z,101380.50
2022-08-28T23:11:52.193Z,101381.97
2022-08-28T23:14:19.456Z,101375.81
2022-08-28T23:16:46.771Z,101370.94
2022-08-28T23:19:16.596Z,101373.03
2022-08-28T23:21:44.581Z,101378.75
2022-08-28T23:24:14.398Z,101375.34
2022-08-28T23:26:41.747Z,101373.03
2022-08-28T23:29:10.167Z,101373.38
2022-08-28T23:31:37.991Z,101382.03
2022-08-28T23:34:05.731Z,101388.94
2022-08-28T23:36:35.361Z,101382.44
2022-08-28T23:39:02.895Z,101378.59
2022-08-28T23:41:31.198Z,101389.78
2022-08-28T23:43:58.036Z,101392.72
2022-08-28T23:46:25.099Z,101388.28
2022-08-28T23:48:52.622Z,101386.13
2022-08-28T23:51:20.052Z,101394.78
2022-08-28T23:53:47.668Z,101390.94
2022-08-28T23:56:15.043Z,101392.81
2022-08-28T23:58:44.668Z,101387.56
